Kenneth Carl — WDF8246 — position and weather

sailwx.info

Track history (hours):
 
Tides and Currents Weather Stations Pressure Air Temp Water Temp Dewpoint Dewpoint Depression Visibility Wind Speed Wind Dir Waves Ship Positions

Kenneth Carl

Owner: So. Cal. Ship Services, Inc., San Pedro, CA. More information available from US FCC via Universal Licensing System and Coast Guard Vessel Documentation Center.

Last reported at 2015-Jan-26 22:33 UTC. Time now 2015-Jan-27 03:23 UTC.
Position N 33°44' W 118°16'.

Length 31 m; draft 3 m.

Type: Ship. MMSI: 367492920.

Date/timePositionNaut miles runAvg speedWind from/ knotsBaromVisibWave heightAir tempDewpointWater temp
2015-Jan-26 22:33N 33°44' W 118°16'10 2.5
2015-Jan-26 18:33N 33°36' W 118°09'2 1.6
2015-Jan-26 17:33N 33°35' W 118°08'1 1.2
2015-Jan-26 16:29N 33°34' W 118°07'1 0.6
2015-Jan-26 14:23N 33°35' W 118°08'0 0.0
2015-Jan-26 12:23N 33°35' W 118°08'1 0.1
2015-Jan-25 23:31N 33°36' W 118°09'1 1.3
2015-Jan-25 22:29N 33°35' W 118°08'0 0.0
2015-Jan-25 21:20N 33°35' W 118°08'0 0.0
2015-Jan-25 20:31N 33°35' W 118°08'0 0.0
2015-Jan-25 19:33N 33°35' W 118°08'0 0.0
2015-Jan-25 18:04N 33°35' W 118°08'1 2.2
2015-Jan-25 17:30N 33°34' W 118°07'1 0.2
2015-Jan-25 11:04N 33°35' W 118°08'0 0.1
2015-Jan-25 09:33N 33°35' W 118°08'0 0.0
2015-Jan-25 08:31N 33°35' W 118°08'0 0.0
2015-Jan-24 09:32N 33°35' W 118°08'0 0.1
2015-Jan-24 08:33N 33°35' W 118°08'0 0.0
2015-Jan-24 07:33N 33°35' W 118°08'0 0.0
2015-Jan-24 06:33N 33°35' W 118°08'0 0.2
2015-Jan-24 05:33N 33°35' W 118°08'1 1.1
2015-Jan-24 04:33N 33°34' W 118°07'9 8.7
2015-Jan-24 03:33N 33°41' W 118°13'4 3.9
2015-Jan-24 02:30N 33°44' W 118°16'12 2.2
2015-Jan-23 21:08N 33°35' W 118°08'0 0.0
2015-Jan-23 20:28N 33°35' W 118°08'0 0.0
2015-Jan-23 19:33N 33°35' W 118°08'0 0.0
2015-Jan-23 18:33N 33°35' W 118°08'0 0.1
2015-Jan-23 17:33N 33°35' W 118°08'0 0.2
2015-Jan-23 16:33N 33°35' W 118°08'10 9.7
2015-Jan-23 15:32N 33°43' W 118°15'2 0.6
2015-Jan-23 12:24N 33°44' W 118°16'0 0.0
2015-Jan-23 11:33N 33°44' W 118°16'0 0.0
2015-Jan-23 10:33N 33°44' W 118°16'0 0.0
2015-Jan-23 09:33N 33°44' W 118°16'0 0.0
2015-Jan-23 08:32N 33°44' W 118°16'0 0.0
2015-Jan-23 07:33N 33°44' W 118°16'0 0.0
2015-Jan-23 06:33N 33°44' W 118°16'0 0.0
2015-Jan-23 05:33N 33°44' W 118°16'8 7.7
2015-Jan-23 04:33N 33°38' W 118°10'4 3.9
2015-Jan-23 03:32N 33°35' W 118°08'0 0.0
2015-Jan-23 02:33N 33°35' W 118°08'0 0.0
2015-Jan-23 01:33N 33°35' W 118°08'10 9.8
2015-Jan-23 00:32N 33°43' W 118°15'1 0.4
2015-Jan-22 22:28N 33°42' W 118°14'1010.6
2015-Jan-22 21:33N 33°34' W 118°08'1 0.6
2015-Jan-22 20:33N 33°35' W 118°08'0 0.0
2015-Jan-22 19:33N 33°35' W 118°08'1 1.2
2015-Jan-22 18:33N 33°34' W 118°07'0 0.0
2015-Jan-22 17:33N 33°34' W 118°07'0 0.0
2015-Jan-22 16:33N 33°34' W 118°07'8 8.0
2015-Jan-22 15:33N 33°40' W 118°13'5 4.7
2015-Jan-22 14:33N 33°44' W 118°16'0 0.3
2015-Jan-22 13:33N 33°44' W 118°16'0 0.0
2015-Jan-22 12:33N 33°44' W 118°16'0 0.0
2015-Jan-22 11:33N 33°44' W 118°16'4 3.9
2015-Jan-22 10:33N 33°41' W 118°14'8 7.8
2015-Jan-22 09:33N 33°35' W 118°08'0 0.0
2015-Jan-22 08:33N 33°35' W 118°08'0 0.0
2015-Jan-22 07:33N 33°35' W 118°08'0 0.0
2015-Jan-22 06:33N 33°35' W 118°08'0 0.0
2015-Jan-22 05:33N 33°35' W 118°08'4 4.2
2015-Jan-22 04:33N 33°38' W 118°11'7 7.4
2015-Jan-22 03:33N 33°44' W 118°16'0 0.0
2015-Jan-22 02:33N 33°44' W 118°16'6 3.8
2015-Jan-22 01:05N 33°40' W 118°12'610.4
2015-Jan-22 00:33N 33°35' W 118°08'1 0.6
2015-Jan-21 23:33N 33°35' W 118°08'0 0.1
2015-Jan-21 21:33N 33°35' W 118°08'0 0.0
2015-Jan-21 09:31N 33°35' W 118°08'0 0.0
2015-Jan-21 08:20N 33°35' W 118°08'0 0.0
2015-Jan-20 20:32N 33°35' W 118°08'0 0.1
2015-Jan-20 19:25N 33°35' W 118°08'0 0.0
2015-Jan-20 18:33N 33°35' W 118°08'0 0.0
2015-Jan-20 17:30N 33°35' W 118°08'12 3.9
2015-Jan-20 14:30N 33°44' W 118°16'0 0.0
2015-Jan-20 12:17N 33°44' W 118°16'0 0.0
2015-Jan-20 10:19N 33°44' W 118°16'0 0.0
2015-Jan-20 09:17N 33°44' W 118°16'0 0.0
2015-Jan-20 08:33N 33°44' W 118°16'0 0.0
2015-Jan-20 07:33N 33°44' W 118°16'9 8.5
2015-Jan-20 06:28N 33°37' W 118°09'2 2.7
2015-Jan-20 05:33N 33°35' W 118°08'0 0.1
2015-Jan-20 04:33N 33°35' W 118°08'1010.0
2015-Jan-20 03:32N 33°43' W 118°15'1 1.5
2015-Jan-20 02:33N 33°44' W 118°16'0 0.0
2015-Jan-20 01:32N 33°44' W 118°16'0 0.0
2015-Jan-20 00:34N 33°44' W 118°16'0 0.0
2015-Jan-19 23:33N 33°44' W 118°16'2 2.2
2015-Jan-19 22:32N 33°42' W 118°15'1010.1
2015-Jan-19 21:32N 33°34' W 118°07'1 0.6
2015-Jan-19 20:33N 33°34' W 118°07'0 0.0
2015-Jan-19 19:33N 33°34' W 118°07'1 1.2
2015-Jan-19 18:33N 33°35' W 118°08'0 0.0
2015-Jan-19 17:33N 33°35' W 118°08'0 0.0
2015-Jan-19 16:33N 33°35' W 118°08'0 0.0
2015-Jan-19 15:34N 33°35' W 118°08'8 8.3
2015-Jan-19 14:33N 33°41' W 118°14'3 3.3
2015-Jan-19 13:33N 33°44' W 118°16'0 0.0
2015-Jan-19 12:33N 33°44' W 118°16'0 0.0
2015-Jan-19 11:33N 33°44' W 118°16'4 3.8
2015-Jan-19 10:33N 33°41' W 118°13'8 7.8
2015-Jan-19 09:33N 33°35' W 118°08'0 0.0
2015-Jan-19 08:33N 33°35' W 118°08'0 0.0
2015-Jan-19 07:33N 33°35' W 118°08'0 0.0
2015-Jan-19 06:33N 33°35' W 118°08'0 0.1
2015-Jan-19 05:33N 33°35' W 118°08'6 6.2
2015-Jan-19 04:33N 33°40' W 118°12'5 5.4
2015-Jan-19 03:33N 33°44' W 118°16'0 0.0
2015-Jan-19 02:33N 33°44' W 118°16'1 1.5
2015-Jan-19 01:33N 33°43' W 118°15'10 9.6
2015-Jan-19 00:33N 33°35' W 118°08'1 0.5
2015-Jan-18 23:33N 33°35' W 118°08'6 5.4
2015-Jan-18 22:31N 33°39' W 118°12'6 6.3
2015-Jan-18 21:33N 33°44' W 118°16'2 1.7
2015-Jan-18 20:33N 33°43' W 118°15'10 9.7
2015-Jan-18 19:31N 33°35' W 118°08'1 1.2
2015-Jan-18 18:33N 33°34' W 118°07'0 0.0
2015-Jan-18 17:33N 33°34' W 118°07'1 1.2
2015-Jan-18 16:33N 33°35' W 118°07'1010.2
2015-Jan-18 15:33N 33°43' W 118°15'2 1.2
2015-Jan-18 14:14N 33°44' W 118°16'0 0.1
2015-Jan-18 13:27N 33°44' W 118°16'9 9.6
2015-Jan-18 12:33N 33°37' W 118°10'3 3.1
2015-Jan-18 11:33N 33°35' W 118°08'0 0.3
2015-Jan-18 10:33N 33°35' W 118°08'10 9.7
2015-Jan-18 09:33N 33°43' W 118°15'2 1.8
2015-Jan-18 08:33N 33°44' W 118°16'1 0.6
2015-Jan-18 07:33N 33°44' W 118°16'9 9.2
2015-Jan-18 06:33N 33°37' W 118°09'2 2.0
2015-Jan-18 05:33N 33°35' W 118°08'0 0.0
2015-Jan-18 04:33N 33°35' W 118°08'0 0.1
2015-Jan-18 03:33N 33°35' W 118°08'8 7.8
2015-Jan-18 02:33N 33°41' W 118°13'4 2.7
2015-Jan-18 01:10N 33°44' W 118°16'0 0.0
2015-Jan-18 00:32N 33°44' W 118°16'0 0.0
2015-Jan-17 23:07N 33°44' W 118°16'0 0.0
2015-Jan-17 22:14N 33°44' W 118°16'4 4.8
2015-Jan-17 21:23N 33°41' W 118°13'8 9.2
2015-Jan-17 20:33N 33°35' W 118°08'0 0.2
2015-Jan-17 19:33N 33°35' W 118°08'0 0.1
2015-Jan-17 18:33N 33°35' W 118°08'0 0.0
2015-Jan-17 17:33N 33°35' W 118°08'0 0.0
2015-Jan-17 16:33N 33°35' W 118°08'0 0.0
2015-Jan-17 15:33N 33°35' W 118°08'1 1.3
2015-Jan-17 14:33N 33°36' W 118°09'10 9.8
2015-Jan-17 13:33N 33°44' W 118°16'1 0.6
2015-Jan-17 12:33N 33°44' W 118°16'0 0.0
2015-Jan-17 11:33N 33°44' W 118°16'0 0.0
2015-Jan-17 10:33N 33°44' W 118°16'0 0.0
2015-Jan-17 09:33N 33°44' W 118°16'0 0.0
2015-Jan-17 08:33N 33°44' W 118°16'0 0.0
2015-Jan-17 07:33N 33°44' W 118°16'4 3.7
2015-Jan-17 06:33N 33°41' W 118°14'8 7.9
2015-Jan-17 05:33N 33°35' W 118°08'0 0.1
2015-Jan-17 04:33N 33°35' W 118°08'0 0.0
2015-Jan-17 03:33N 33°35' W 118°08'0 0.0
2015-Jan-17 02:33N 33°35' W 118°08'9 8.7
2015-Jan-17 01:33N 33°42' W 118°14'3 2.9
2015-Jan-17 00:33N 33°44' W 118°16'0 0.0
2015-Jan-16 23:33N 33°44' W 118°16'  
Track history (hours):
 
Tides and Currents Weather Stations Pressure Air Temp Water Temp Dewpoint Dewpoint Depression Visibility Wind Speed Wind Dir Waves Ship Positions

Kenneth Carl

Owner: So. Cal. Ship Services, Inc., San Pedro, CA. More information available from US FCC via Universal Licensing System and Coast Guard Vessel Documentation Center.

Last reported at 2015-Jan-26 22:33 UTC. Time now 2015-Jan-27 03:23 UTC.
Position N 33°44' W 118°16'.

Length 31 m; draft 3 m.

Type: Ship. MMSI: 367492920.

Date/timePositionNaut miles runAvg speedWind from/ knotsBaromVisibWave heightAir tempDewpointWater temp
2015-Jan-26 22:33N 33°44' W 118°16'10 2.5
2015-Jan-26 18:33N 33°36' W 118°09'2 1.6
2015-Jan-26 17:33N 33°35' W 118°08'1 1.2
2015-Jan-26 16:29N 33°34' W 118°07'1 0.6
2015-Jan-26 14:23N 33°35' W 118°08'0 0.0
2015-Jan-26 12:23N 33°35' W 118°08'1 0.1
2015-Jan-25 23:31N 33°36' W 118°09'1 1.3
2015-Jan-25 22:29N 33°35' W 118°08'0 0.0
2015-Jan-25 21:20N 33°35' W 118°08'0 0.0
2015-Jan-25 20:31N 33°35' W 118°08'0 0.0
2015-Jan-25 19:33N 33°35' W 118°08'0 0.0
2015-Jan-25 18:04N 33°35' W 118°08'1 2.2
2015-Jan-25 17:30N 33°34' W 118°07'1 0.2
2015-Jan-25 11:04N 33°35' W 118°08'0 0.1
2015-Jan-25 09:33N 33°35' W 118°08'0 0.0
2015-Jan-25 08:31N 33°35' W 118°08'0 0.0
2015-Jan-24 09:32N 33°35' W 118°08'0 0.1
2015-Jan-24 08:33N 33°35' W 118°08'0 0.0
2015-Jan-24 07:33N 33°35' W 118°08'0 0.0
2015-Jan-24 06:33N 33°35' W 118°08'0 0.2
2015-Jan-24 05:33N 33°35' W 118°08'1 1.1
2015-Jan-24 04:33N 33°34' W 118°07'9 8.7
2015-Jan-24 03:33N 33°41' W 118°13'4 3.9
2015-Jan-24 02:30N 33°44' W 118°16'12 2.2
2015-Jan-23 21:08N 33°35' W 118°08'0 0.0
2015-Jan-23 20:28N 33°35' W 118°08'0 0.0
2015-Jan-23 19:33N 33°35' W 118°08'0 0.0
2015-Jan-23 18:33N 33°35' W 118°08'0 0.1
2015-Jan-23 17:33N 33°35' W 118°08'0 0.2
2015-Jan-23 16:33N 33°35' W 118°08'10 9.7
2015-Jan-23 15:32N 33°43' W 118°15'2 0.6
2015-Jan-23 12:24N 33°44' W 118°16'0 0.0
2015-Jan-23 11:33N 33°44' W 118°16'0 0.0
2015-Jan-23 10:33N 33°44' W 118°16'0 0.0
2015-Jan-23 09:33N 33°44' W 118°16'0 0.0
2015-Jan-23 08:32N 33°44' W 118°16'0 0.0
2015-Jan-23 07:33N 33°44' W 118°16'0 0.0
2015-Jan-23 06:33N 33°44' W 118°16'0 0.0
2015-Jan-23 05:33N 33°44' W 118°16'8 7.7
2015-Jan-23 04:33N 33°38' W 118°10'4 3.9
2015-Jan-23 03:32N 33°35' W 118°08'0 0.0
2015-Jan-23 02:33N 33°35' W 118°08'0 0.0
2015-Jan-23 01:33N 33°35' W 118°08'10 9.8
2015-Jan-23 00:32N 33°43' W 118°15'1 0.4
2015-Jan-22 22:28N 33°42' W 118°14'1010.6
2015-Jan-22 21:33N 33°34' W 118°08'1 0.6
2015-Jan-22 20:33N 33°35' W 118°08'0 0.0
2015-Jan-22 19:33N 33°35' W 118°08'1 1.2
2015-Jan-22 18:33N 33°34' W 118°07'0 0.0
2015-Jan-22 17:33N 33°34' W 118°07'0 0.0
2015-Jan-22 16:33N 33°34' W 118°07'8 8.0
2015-Jan-22 15:33N 33°40' W 118°13'5 4.7
2015-Jan-22 14:33N 33°44' W 118°16'0 0.3
2015-Jan-22 13:33N 33°44' W 118°16'0 0.0
2015-Jan-22 12:33N 33°44' W 118°16'0 0.0
2015-Jan-22 11:33N 33°44' W 118°16'4 3.9
2015-Jan-22 10:33N 33°41' W 118°14'8 7.8
2015-Jan-22 09:33N 33°35' W 118°08'0 0.0
2015-Jan-22 08:33N 33°35' W 118°08'0 0.0
2015-Jan-22 07:33N 33°35' W 118°08'0 0.0
2015-Jan-22 06:33N 33°35' W 118°08'0 0.0
2015-Jan-22 05:33N 33°35' W 118°08'4 4.2
2015-Jan-22 04:33N 33°38' W 118°11'7 7.4
2015-Jan-22 03:33N 33°44' W 118°16'0 0.0
2015-Jan-22 02:33N 33°44' W 118°16'6 3.8
2015-Jan-22 01:05N 33°40' W 118°12'610.4
2015-Jan-22 00:33N 33°35' W 118°08'1 0.6
2015-Jan-21 23:33N 33°35' W 118°08'0 0.1
2015-Jan-21 21:33N 33°35' W 118°08'0 0.0
2015-Jan-21 09:31N 33°35' W 118°08'0 0.0
2015-Jan-21 08:20N 33°35' W 118°08'0 0.0
2015-Jan-20 20:32N 33°35' W 118°08'0 0.1
2015-Jan-20 19:25N 33°35' W 118°08'0 0.0
2015-Jan-20 18:33N 33°35' W 118°08'0 0.0
2015-Jan-20 17:30N 33°35' W 118°08'12 3.9
2015-Jan-20 14:30N 33°44' W 118°16'0 0.0
2015-Jan-20 12:17N 33°44' W 118°16'0 0.0
2015-Jan-20 10:19N 33°44' W 118°16'0 0.0
2015-Jan-20 09:17N 33°44' W 118°16'0 0.0
2015-Jan-20 08:33N 33°44' W 118°16'0 0.0
2015-Jan-20 07:33N 33°44' W 118°16'9 8.5
2015-Jan-20 06:28N 33°37' W 118°09'2 2.7
2015-Jan-20 05:33N 33°35' W 118°08'0 0.1
2015-Jan-20 04:33N 33°35' W 118°08'1010.0
2015-Jan-20 03:32N 33°43' W 118°15'1 1.5
2015-Jan-20 02:33N 33°44' W 118°16'0 0.0
2015-Jan-20 01:32N 33°44' W 118°16'0 0.0
2015-Jan-20 00:34N 33°44' W 118°16'0 0.0
2015-Jan-19 23:33N 33°44' W 118°16'2 2.2
2015-Jan-19 22:32N 33°42' W 118°15'1010.1
2015-Jan-19 21:32N 33°34' W 118°07'1 0.6
2015-Jan-19 20:33N 33°34' W 118°07'0 0.0
2015-Jan-19 19:33N 33°34' W 118°07'1 1.2
2015-Jan-19 18:33N 33°35' W 118°08'0 0.0
2015-Jan-19 17:33N 33°35' W 118°08'0 0.0
2015-Jan-19 16:33N 33°35' W 118°08'0 0.0
2015-Jan-19 15:34N 33°35' W 118°08'8 8.3
2015-Jan-19 14:33N 33°41' W 118°14'3 3.3
2015-Jan-19 13:33N 33°44' W 118°16'0 0.0
2015-Jan-19 12:33N 33°44' W 118°16'0 0.0
2015-Jan-19 11:33N 33°44' W 118°16'4 3.8
2015-Jan-19 10:33N 33°41' W 118°13'8 7.8
2015-Jan-19 09:33N 33°35' W 118°08'0 0.0
2015-Jan-19 08:33N 33°35' W 118°08'0 0.0
2015-Jan-19 07:33N 33°35' W 118°08'0 0.0
2015-Jan-19 06:33N 33°35' W 118°08'0 0.1
2015-Jan-19 05:33N 33°35' W 118°08'6 6.2
2015-Jan-19 04:33N 33°40' W 118°12'5 5.4
2015-Jan-19 03:33N 33°44' W 118°16'0 0.0
2015-Jan-19 02:33N 33°44' W 118°16'1 1.5
2015-Jan-19 01:33N 33°43' W 118°15'10 9.6
2015-Jan-19 00:33N 33°35' W 118°08'1 0.5
2015-Jan-18 23:33N 33°35' W 118°08'6 5.4
2015-Jan-18 22:31N 33°39' W 118°12'6 6.3
2015-Jan-18 21:33N 33°44' W 118°16'2 1.7
2015-Jan-18 20:33N 33°43' W 118°15'10 9.7
2015-Jan-18 19:31N 33°35' W 118°08'1 1.2
2015-Jan-18 18:33N 33°34' W 118°07'0 0.0
2015-Jan-18 17:33N 33°34' W 118°07'1 1.2
2015-Jan-18 16:33N 33°35' W 118°07'1010.2
2015-Jan-18 15:33N 33°43' W 118°15'2 1.2
2015-Jan-18 14:14N 33°44' W 118°16'0 0.1
2015-Jan-18 13:27N 33°44' W 118°16'9 9.6
2015-Jan-18 12:33N 33°37' W 118°10'3 3.1
2015-Jan-18 11:33N 33°35' W 118°08'0 0.3
2015-Jan-18 10:33N 33°35' W 118°08'10 9.7
2015-Jan-18 09:33N 33°43' W 118°15'2 1.8
2015-Jan-18 08:33N 33°44' W 118°16'1 0.6
2015-Jan-18 07:33N 33°44' W 118°16'9 9.2
2015-Jan-18 06:33N 33°37' W 118°09'2 2.0
2015-Jan-18 05:33N 33°35' W 118°08'0 0.0
2015-Jan-18 04:33N 33°35' W 118°08'0 0.1
2015-Jan-18 03:33N 33°35' W 118°08'8 7.8
2015-Jan-18 02:33N 33°41' W 118°13'4 2.7
2015-Jan-18 01:10N 33°44' W 118°16'0 0.0
2015-Jan-18 00:32N 33°44' W 118°16'0 0.0
2015-Jan-17 23:07N 33°44' W 118°16'0 0.0
2015-Jan-17 22:14N 33°44' W 118°16'4 4.8
2015-Jan-17 21:23N 33°41' W 118°13'8 9.2
2015-Jan-17 20:33N 33°35' W 118°08'0 0.2
2015-Jan-17 19:33N 33°35' W 118°08'0 0.1
2015-Jan-17 18:33N 33°35' W 118°08'0 0.0
2015-Jan-17 17:33N 33°35' W 118°08'0 0.0
2015-Jan-17 16:33N 33°35' W 118°08'0 0.0
2015-Jan-17 15:33N 33°35' W 118°08'1 1.3
2015-Jan-17 14:33N 33°36' W 118°09'10 9.8
2015-Jan-17 13:33N 33°44' W 118°16'1 0.6
2015-Jan-17 12:33N 33°44' W 118°16'0 0.0
2015-Jan-17 11:33N 33°44' W 118°16'0 0.0
2015-Jan-17 10:33N 33°44' W 118°16'0 0.0
2015-Jan-17 09:33N 33°44' W 118°16'0 0.0
2015-Jan-17 08:33N 33°44' W 118°16'0 0.0
2015-Jan-17 07:33N 33°44' W 118°16'4 3.7
2015-Jan-17 06:33N 33°41' W 118°14'8 7.9
2015-Jan-17 05:33N 33°35' W 118°08'0 0.1
2015-Jan-17 04:33N 33°35' W 118°08'0 0.0
2015-Jan-17 03:33N 33°35' W 118°08'0 0.0
2015-Jan-17 02:33N 33°35' W 118°08'9 8.7
2015-Jan-17 01:33N 33°42' W 118°14'3 2.9
2015-Jan-17 00:33N 33°44' W 118°16'0 0.0
2015-Jan-16 23:33N 33°44' W 118°16'  

Dump ship's entire track history